EDDW

Bremen Airport

Bremen, Germany
METAR EDDW 190650Z 04004KT 360V090 CAVOK 19/12 Q1019 NOSIG
Observed Flight Rules
Jul-19 @ 06:50 UTC (37 minutes ago) Visual Flight Rules
Wind Visibility Clouds
40° at 4 knots 10,000+ meters
  • Clear skies
Temperatures Readings
Current 19°C / 66°F
Dewpoint 12°C / 54°F
Humidity 64%
Altimeter 30.09" Hg
Pressure 1019 hPa
Elevation 5
METAR EDDW 190650Z 04004KT 360V090 CAVOK 19/12 Q1019 NOSIG
Observed Flight Rules
Jul-19 @ 06:50 UTC
(37 minutes ago)
VFR
Wind Visibility
40° at 4 knots 10,000+ meters
Clouds
  • Clear skies
Temperature Dewpoint
19°C / 66°F 12°C / 54°F
Humidity Altimeter Pressure
64% 30.09" Hg 1019 hPa